createdAt,value
2022-08-28T00:00:39.733Z,1.70
2022-08-28T00:03:08.177Z,1.90
2022-08-28T00:05:36.439Z,1.87
2022-08-28T00:08:04.065Z,2.20
2022-08-28T00:10:31.946Z,1.97
2022-08-28T00:13:00.041Z,2.00
2022-08-28T00:15:34.958Z,1.80
2022-08-28T00:18:04.567Z,2.27
2022-08-28T00:20:34.169Z,2.17
2022-08-28T00:23:02.106Z,2.37
2022-08-28T00:25:33.073Z,2.13
2022-08-28T00:28:08.570Z,1.97
2022-08-28T00:30:48.510Z,2.40
2022-08-28T00:33:34.698Z,2.43
2022-08-28T00:36:03.435Z,2.40
2022-08-28T00:38:31.509Z,2.43
2022-08-28T00:41:03.883Z,2.30
2022-08-28T00:43:40.245Z,2.33
2022-08-28T00:46:21.903Z,2.40
2022-08-28T00:48:50.594Z,2.20
2022-08-28T00:51:38.938Z,2.20
2022-08-28T00:54:08.492Z,2.13
2022-08-28T00:56:40.078Z,2.43
2022-08-28T00:59:15.689Z,2.60
2022-08-28T01:01:46.223Z,2.30
2022-08-28T01:04:20.326Z,2.63
2022-08-28T01:06:53.777Z,2.70
2022-08-28T01:09:27.064Z,2.07
2022-08-28T01:12:03.299Z,2.30
2022-08-28T01:14:36.343Z,3.30
2022-08-28T01:17:06.120Z,2.40
2022-08-28T01:19:41.173Z,2.77
2022-08-28T01:22:38.357Z,2.83
2022-08-28T01:25:16.568Z,2.20
2022-08-28T01:27:44.350Z,2.70
2022-08-28T01:30:16.700Z,2.87
2022-08-28T01:32:50.196Z,3.27
2022-08-28T01:35:27.186Z,2.50
2022-08-28T01:37:56.159Z,2.50
2022-08-28T01:40:32.503Z,2.40
2022-08-28T01:43:20.018Z,3.17
2022-08-28T01:45:56.330Z,2.37
2022-08-28T01:48:27.103Z,2.67
2022-08-28T01:50:55.460Z,2.53
2022-08-28T01:53:32.747Z,2.47
2022-08-28T01:56:05.353Z,2.43
2022-08-28T01:58:37.892Z,2.50
2022-08-28T02:01:11.915Z,2.73
2022-08-28T02:03:39.872Z,2.47
2022-08-28T02:06:07.276Z,1.93
2022-08-28T02:08:35.885Z,1.87
2022-08-28T02:11:06.436Z,2.10
2022-08-28T02:13:36.224Z,3.10
2022-08-28T02:16:09.377Z,2.40
2022-08-28T02:18:38.021Z,2.53
2022-08-28T02:21:07.335Z,2.40
2022-08-28T02:23:35.023Z,2.57
2022-08-28T02:26:02.256Z,2.80
2022-08-28T02:28:29.775Z,2.10
2022-08-28T02:30:57.136Z,2.33
2022-08-28T02:33:24.243Z,2.70
2022-08-28T02:35:52.242Z,5.10
2022-08-28T02:38:19.437Z,6.43
2022-08-28T02:40:47.366Z,4.17
2022-08-28T02:43:14.595Z,3.67
2022-08-28T02:45:42.180Z,2.80
2022-08-28T02:48:12.011Z,2.70
2022-08-28T02:50:46.367Z,1.93
2022-08-28T02:53:14.420Z,2.20
2022-08-28T02:55:41.632Z,2.73
2022-08-28T02:58:09.923Z,2.60
2022-08-28T03:00:37.225Z,1.93
2022-08-28T03:03:05.404Z,3.00
2022-08-28T03:05:32.762Z,3.00
2022-08-28T03:08:00.159Z,2.50
2022-08-28T03:10:27.315Z,2.23
2022-08-28T03:12:54.436Z,2.43
2022-08-28T03:15:22.053Z,2.43
2022-08-28T03:17:49.539Z,1.93
2022-08-28T03:20:18.385Z,2.67
2022-08-28T03:23:03.707Z,2.50
2022-08-28T03:25:31.253Z,2.63
2022-08-28T03:27:58.464Z,3.13
2022-08-28T03:30:26.050Z,3.17
2022-08-28T03:32:54.246Z,3.20
2022-08-28T03:35:21.995Z,2.07
2022-08-28T03:37:49.896Z,3.30
2022-08-28T03:40:17.336Z,2.50
2022-08-28T03:42:52.992Z,2.37
2022-08-28T03:45:21.150Z,2.33
2022-08-28T03:47:48.296Z,2.60
2022-08-28T03:50:17.630Z,2.27
2022-08-28T03:52:47.634Z,2.73
2022-08-28T03:55:14.916Z,2.73
2022-08-28T03:57:42.267Z,2.47
2022-08-28T04:00:13.419Z,2.50
2022-08-28T04:02:44.955Z,2.83
2022-08-28T04:05:14.076Z,3.47
2022-08-28T04:07:41.348Z,2.10
2022-08-28T04:10:09.592Z,2.53
2022-08-28T04:12:37.231Z,2.47
2022-08-28T04:15:07.090Z,2.83
2022-08-28T04:17:39.719Z,2.77
2022-08-28T04:20:11.291Z,3.10
2022-08-28T04:22:39.478Z,3.20
2022-08-28T04:25:08.429Z,2.43
2022-08-28T04:27:36.507Z,2.80
2022-08-28T04:30:05.373Z,3.70
2022-08-28T04:32:38.569Z,3.27
2022-08-28T04:35:09.044Z,2.83
2022-08-28T04:37:37.168Z,3.10
2022-08-28T04:40:10.112Z,2.93
2022-08-28T04:42:40.059Z,2.50
2022-08-28T04:45:27.579Z,2.50
2022-08-28T04:47:54.985Z,2.37
2022-08-28T04:50:22.698Z,3.13
2022-08-28T04:52:53.455Z,2.80
2022-08-28T04:55:27.841Z,2.47
2022-08-28T04:58:08.842Z,2.17
2022-08-28T05:00:40.424Z,2.80
2022-08-28T05:03:07.648Z,2.50
2022-08-28T05:05:41.905Z,2.40
2022-08-28T05:08:09.252Z,2.77
2022-08-28T05:10:36.803Z,3.23
2022-08-28T05:13:04.324Z,2.50
2022-08-28T05:15:31.844Z,2.10
2022-08-28T05:17:59.508Z,2.50
2022-08-28T05:20:27.189Z,2.33
2022-08-28T05:22:54.744Z,2.77
2022-08-28T05:25:21.854Z,2.27
2022-08-28T05:27:50.949Z,2.60
2022-08-28T05:30:18.535Z,1.73
2022-08-28T05:32:45.621Z,2.37
2022-08-28T05:35:12.899Z,1.93
2022-08-28T05:37:40.053Z,2.13
2022-08-28T05:40:10.851Z,2.13
2022-08-28T05:42:39.201Z,2.00
2022-08-28T05:45:08.248Z,1.67
2022-08-28T05:47:35.805Z,1.57
2022-08-28T05:50:03.641Z,2.40
2022-08-28T05:52:30.756Z,2.60
2022-08-28T05:54:58.228Z,2.10
2022-08-28T05:57:25.423Z,2.17
2022-08-28T06:00:13.764Z,2.00
2022-08-28T06:02:42.182Z,2.10
2022-08-28T06:05:13.161Z,1.77
2022-08-28T06:07:41.442Z,1.67
2022-08-28T06:10:10.814Z,2.00
2022-08-28T06:12:38.308Z,2.03
2022-08-28T06:15:06.319Z,2.17
2022-08-28T06:17:34.065Z,2.47
2022-08-28T06:20:01.358Z,2.13
2022-08-28T06:22:28.542Z,2.07
2022-08-28T06:24:55.690Z,2.10
2022-08-28T06:27:22.826Z,1.93
2022-08-28T06:29:50.025Z,1.53
2022-08-28T06:32:17.275Z,1.87
2022-08-28T06:34:44.554Z,2.20
2022-08-28T06:37:11.642Z,2.07
2022-08-28T06:39:38.801Z,1.70
2022-08-28T06:42:06.263Z,1.60
2022-08-28T06:44:33.618Z,2.23
2022-08-28T06:47:01.166Z,2.03
2022-08-28T06:49:28.993Z,1.73
2022-08-28T06:51:56.411Z,1.80
2022-08-28T06:54:23.763Z,1.80
2022-08-28T06:56:52.539Z,2.20
2022-08-28T06:59:20.374Z,1.90
2022-08-28T07:01:47.631Z,2.00
2022-08-28T07:04:14.948Z,2.17
2022-08-28T07:06:53.761Z,2.20
2022-08-28T07:09:23.086Z,2.43
2022-08-28T07:11:51.544Z,2.27
2022-08-28T07:14:18.961Z,2.00
2022-08-28T07:16:46.407Z,1.60
2022-08-28T07:19:14.850Z,1.70
2022-08-28T07:21:45.574Z,1.80
2022-08-28T07:24:17.472Z,1.60
2022-08-28T07:26:47.037Z,1.73
2022-08-28T07:29:15.534Z,2.20
2022-08-28T07:31:49.493Z,1.90
2022-08-28T07:34:21.204Z,1.77
2022-08-28T07:36:52.118Z,1.30
2022-08-28T07:39:19.728Z,1.60
2022-08-28T07:41:48.371Z,1.60
2022-08-28T07:44:36.262Z,1.70
2022-08-28T07:47:06.425Z,1.63
2022-08-28T07:49:36.050Z,2.07
2022-08-28T07:52:05.439Z,1.30
2022-08-28T07:54:33.191Z,1.87
2022-08-28T07:57:02.211Z,1.53
2022-08-28T07:59:36.557Z,1.87
2022-08-28T08:02:06.137Z,1.73
2022-08-28T08:04:33.953Z,1.20
2022-08-28T08:07:04.013Z,1.57
2022-08-28T08:09:31.239Z,1.53
2022-08-28T08:12:00.626Z,1.30
2022-08-28T08:14:28.559Z,1.80
2022-08-28T08:16:56.053Z,1.60
2022-08-28T08:19:23.516Z,1.77
2022-08-28T08:21:55.122Z,1.23
2022-08-28T08:24:28.310Z,1.17
2022-08-28T08:27:02.256Z,1.57
2022-08-28T08:29:36.332Z,1.70
2022-08-28T08:32:10.965Z,1.63
2022-08-28T08:34:42.905Z,2.03
2022-08-28T08:37:12.772Z,1.60
2022-08-28T08:39:41.819Z,1.67
2022-08-28T08:42:34.166Z,2.03
2022-08-28T08:45:04.395Z,1.30
2022-08-28T08:47:51.702Z,2.00
2022-08-28T08:50:31.578Z,1.50
2022-08-28T08:53:29.624Z,1.37
2022-08-28T08:55:58.401Z,1.70
2022-08-28T08:58:45.443Z,1.73
2022-08-28T09:01:39.726Z,2.03
2022-08-28T09:05:09.562Z,2.23
2022-08-28T09:07:57.830Z,1.77
2022-08-28T09:10:38.847Z,1.70
2022-08-28T09:13:26.182Z,1.40
2022-08-28T09:15:53.540Z,1.60
2022-08-28T09:18:27.933Z,1.53
2022-08-28T09:20:59.925Z,1.80
2022-08-28T09:23:29.904Z,1.83
2022-08-28T09:26:09.362Z,1.70
2022-08-28T09:28:41.990Z,1.57
2022-08-28T09:31:41.618Z,1.57
2022-08-28T09:34:28.838Z,1.30
2022-08-28T09:37:00.284Z,1.50
2022-08-28T09:39:36.592Z,1.80
2022-08-28T09:42:34.884Z,1.70
2022-08-28T09:45:22.564Z,1.37
2022-08-28T09:47:52.606Z,1.73
2022-08-28T09:50:24.809Z,1.20
2022-08-28T09:52:57.156Z,1.40
2022-08-28T09:55:40.586Z,1.47
2022-08-28T09:58:09.588Z,1.30
2022-08-28T10:00:43.402Z,1.30
2022-08-28T10:03:17.431Z,1.80
2022-08-28T10:05:58.553Z,1.77
2022-08-28T10:08:56.724Z,1.23
2022-08-28T10:11:59.154Z,1.43
2022-08-28T10:14:38.453Z,1.33
2022-08-28T10:17:42.450Z,1.57
2022-08-28T10:20:37.356Z,1.50
2022-08-28T10:23:43.291Z,2.00
2022-08-28T10:26:36.507Z,1.63
2022-08-28T10:29:15.467Z,1.07
2022-08-28T10:32:07.691Z,1.80
2022-08-28T10:35:13.762Z,1.43
2022-08-28T10:38:14.371Z,1.47
2022-08-28T10:40:50.900Z,1.57
2022-08-28T10:43:34.883Z,1.60
2022-08-28T10:46:17.964Z,1.40
2022-08-28T10:49:03.820Z,1.50
2022-08-28T10:51:49.309Z,1.57
2022-08-28T10:54:41.149Z,1.30
2022-08-28T10:57:34.992Z,1.73
2022-08-28T11:00:18.158Z,1.73
2022-08-28T11:02:52.702Z,2.33
2022-08-28T11:05:27.779Z,1.50
2022-08-28T11:08:02.256Z,1.73
2022-08-28T11:10:32.421Z,1.57
2022-08-28T11:13:01.156Z,1.70
2022-08-28T11:15:36.391Z,1.57
2022-08-28T11:18:16.711Z,1.53
2022-08-28T11:21:22.963Z,1.63
2022-08-28T11:24:07.131Z,2.00
2022-08-28T11:27:04.691Z,1.80
2022-08-28T11:30:10.896Z,1.80
2022-08-28T11:32:49.839Z,1.90
2022-08-28T11:35:41.039Z,2.00
2022-08-28T11:38:08.761Z,1.50
2022-08-28T11:40:41.044Z,1.50
2022-08-28T11:43:17.114Z,1.87
2022-08-28T11:45:47.340Z,1.50
2022-08-28T11:48:33.559Z,1.60
2022-08-28T11:51:26.658Z,1.80
2022-08-28T11:54:11.522Z,1.47
2022-08-28T11:56:49.801Z,1.37
2022-08-28T11:59:41.505Z,1.73
2022-08-28T12:02:40.006Z,2.00
2022-08-28T12:05:14.677Z,1.93
2022-08-28T12:07:48.859Z,1.97
2022-08-28T12:10:27.697Z,1.30
2022-08-28T12:13:07.304Z,1.53
2022-08-28T12:15:34.591Z,1.40
2022-08-28T12:18:36.826Z,1.70
2022-08-28T12:21:12.737Z,1.57
2022-08-28T12:24:09.802Z,1.63
2022-08-28T12:26:46.049Z,1.40
2022-08-28T12:29:32.447Z,1.43
2022-08-28T12:32:27.363Z,1.53
2022-08-28T12:35:00.847Z,1.30
2022-08-28T12:37:53.834Z,1.00
2022-08-28T12:40:23.868Z,1.57
2022-08-28T12:43:06.181Z,1.20
2022-08-28T12:45:54.013Z,1.07
2022-08-28T12:48:55.365Z,1.13
2022-08-28T12:51:38.869Z,1.23
2022-08-28T12:54:08.877Z,1.33
2022-08-28T12:56:38.810Z,1.13
2022-08-28T12:59:32.008Z,1.43
2022-08-28T13:02:34.469Z,1.63
2022-08-28T13:05:08.718Z,1.20
2022-08-28T13:07:41.187Z,1.27
2022-08-28T13:10:24.673Z,1.20
2022-08-28T13:13:05.771Z,1.40
2022-08-28T13:16:03.545Z,1.17
2022-08-28T13:18:37.195Z,1.03
2022-08-28T13:21:24.605Z,1.33
2022-08-28T13:24:26.255Z,1.53
2022-08-28T13:27:12.963Z,1.53
2022-08-28T13:30:00.958Z,1.10
2022-08-28T13:32:32.722Z,0.97
2022-08-28T13:35:28.777Z,1.50
2022-08-28T13:38:19.886Z,1.30
2022-08-28T13:41:00.408Z,1.10
2022-08-28T13:43:43.804Z,0.90
2022-08-28T13:46:10.985Z,1.27
2022-08-28T13:48:38.162Z,1.10
2022-08-28T13:51:12.018Z,1.00
2022-08-28T13:53:44.886Z,0.97
2022-08-28T13:56:12.589Z,1.17
2022-08-28T13:58:39.678Z,1.10
2022-08-28T14:01:07.476Z,1.03
2022-08-28T14:03:39.033Z,1.43
2022-08-28T14:06:12.461Z,1.10
2022-08-28T14:08:42.048Z,1.60
2022-08-28T14:11:12.733Z,1.20
2022-08-28T14:13:46.987Z,1.33
2022-08-28T14:16:25.549Z,0.90
2022-08-28T14:18:53.690Z,0.97
2022-08-28T14:21:24.511Z,1.00
2022-08-28T14:23:52.126Z,1.23
2022-08-28T14:26:20.285Z,0.87
2022-08-28T14:28:48.885Z,1.40
2022-08-28T14:31:16.842Z,1.03
2022-08-28T14:33:45.409Z,1.00
2022-08-28T14:36:21.168Z,1.57
2022-08-28T14:38:53.903Z,1.17
2022-08-28T14:41:23.730Z,0.97
2022-08-28T14:43:52.096Z,1.23
2022-08-28T14:46:28.633Z,1.00
2022-08-28T14:49:08.557Z,1.10
2022-08-28T14:51:38.384Z,0.97
2022-08-28T14:54:07.670Z,1.20
2022-08-28T14:56:35.873Z,1.10
2022-08-28T14:59:05.818Z,1.30
2022-08-28T15:01:40.832Z,1.50
2022-08-28T15:04:15.800Z,1.13
2022-08-28T15:06:43.935Z,1.50
2022-08-28T15:09:14.119Z,1.80
2022-08-28T15:11:43.046Z,0.87
2022-08-28T15:14:11.768Z,1.27
2022-08-28T15:16:45.226Z,1.23
2022-08-28T15:19:16.016Z,1.07
2022-08-28T15:21:51.374Z,0.60
2022-08-28T15:24:22.880Z,1.27
2022-08-28T15:26:50.629Z,1.63
2022-08-28T15:29:18.969Z,0.90
2022-08-28T15:31:49.831Z,1.30
2022-08-28T15:34:22.725Z,1.00
2022-08-28T15:36:55.817Z,1.00
2022-08-28T15:39:47.225Z,1.00
2022-08-28T15:42:16.206Z,1.00
2022-08-28T15:44:44.741Z,0.83
2022-08-28T15:47:14.076Z,0.93
2022-08-28T15:49:44.681Z,0.73
2022-08-28T15:52:15.850Z,1.10
2022-08-28T15:54:43.685Z,1.10
2022-08-28T15:57:11.129Z,0.87
2022-08-28T15:59:49.732Z,1.30
2022-08-28T16:02:20.640Z,1.00
2022-08-28T16:04:48.757Z,1.00
2022-08-28T16:07:16.924Z,1.00
2022-08-28T16:09:44.603Z,1.00
2022-08-28T16:12:12.082Z,0.90
2022-08-28T16:14:39.306Z,1.13
2022-08-28T16:17:10.613Z,0.90
2022-08-28T16:19:39.991Z,0.90
2022-08-28T16:22:08.892Z,0.83
2022-08-28T16:24:36.965Z,1.50
2022-08-28T16:27:06.215Z,0.90
2022-08-28T16:29:35.994Z,0.97
2022-08-28T16:32:05.836Z,0.90
2022-08-28T16:34:34.196Z,1.10
2022-08-28T16:37:01.765Z,1.50
2022-08-28T16:39:29.288Z,1.17
2022-08-28T16:41:56.515Z,1.20
2022-08-28T16:44:26.407Z,1.43
2022-08-28T16:46:55.540Z,0.93
2022-08-28T16:49:23.784Z,1.10
2022-08-28T16:51:51.139Z,1.23
2022-08-28T16:54:18.599Z,1.30
2022-08-28T16:56:46.648Z,1.27
2022-08-28T16:59:23.482Z,1.20
2022-08-28T17:01:53.793Z,0.93
2022-08-28T17:04:22.395Z,0.90
2022-08-28T17:06:49.566Z,1.40
2022-08-28T17:09:17.080Z,1.60
2022-08-28T17:11:50.938Z,1.20
2022-08-28T17:14:22.225Z,1.00
2022-08-28T17:16:50.820Z,1.30
2022-08-28T17:19:19.311Z,1.43
2022-08-28T17:22:04.899Z,1.07
2022-08-28T17:24:32.348Z,1.23
2022-08-28T17:27:05.143Z,1.07
2022-08-28T17:29:35.470Z,1.43
2022-08-28T17:32:05.331Z,1.27
2022-08-28T17:34:32.923Z,1.27
2022-08-28T17:37:00.677Z,1.70
2022-08-28T17:39:27.990Z,1.17
2022-08-28T17:41:55.729Z,1.33
2022-08-28T17:44:23.675Z,1.60
2022-08-28T17:46:54.041Z,1.10
2022-08-28T17:49:22.505Z,1.60
2022-08-28T17:51:51.215Z,1.63
2022-08-28T17:54:22.650Z,1.20
2022-08-28T17:56:51.364Z,1.53
2022-08-28T17:59:20.061Z,0.80
2022-08-28T18:01:47.851Z,1.00
2022-08-28T18:04:23.831Z,1.30
2022-08-28T18:06:54.323Z,1.57
2022-08-28T18:09:23.214Z,1.73
2022-08-28T18:11:50.620Z,1.33
2022-08-28T18:14:18.987Z,1.33
2022-08-28T18:16:46.450Z,1.23
2022-08-28T18:19:13.892Z,1.23
2022-08-28T18:21:41.632Z,2.53
2022-08-28T18:24:12.981Z,2.03
2022-08-28T18:26:42.824Z,1.87
2022-08-28T18:29:10.858Z,1.67
2022-08-28T18:31:38.526Z,1.47
2022-08-28T18:34:06.221Z,1.80
2022-08-28T18:36:33.768Z,1.60
2022-08-28T18:39:01.288Z,2.00
2022-08-28T18:41:41.660Z,3.57
2022-08-28T18:44:13.571Z,3.10
2022-08-28T18:46:41.619Z,3.40
2022-08-28T18:49:10.058Z,2.93
2022-08-28T18:51:37.939Z,1.80
2022-08-28T18:54:06.528Z,1.97
2022-08-28T18:56:36.217Z,1.90
2022-08-28T18:59:06.610Z,1.43
2022-08-28T19:01:34.163Z,1.93
2022-08-28T19:04:01.483Z,2.00
2022-08-28T19:06:28.672Z,1.77
2022-08-28T19:08:56.005Z,2.37
2022-08-28T19:11:23.500Z,1.47
2022-08-28T19:13:51.030Z,1.90
2022-08-28T19:16:20.697Z,2.03
2022-08-28T19:18:48.801Z,1.87
2022-08-28T19:21:20.613Z,1.77
2022-08-28T19:23:56.131Z,1.90
2022-08-28T19:26:25.559Z,1.60
2022-08-28T19:28:54.061Z,1.87
2022-08-28T19:31:23.129Z,2.27
2022-08-28T19:33:52.812Z,2.07
2022-08-28T19:36:21.443Z,1.60
2022-08-28T19:38:49.452Z,2.37
2022-08-28T19:41:17.999Z,2.43
2022-08-28T19:43:45.563Z,2.10
2022-08-28T19:46:20.190Z,1.73
2022-08-28T19:48:54.308Z,1.83
2022-08-28T19:51:24.249Z,2.20
2022-08-28T19:53:58.227Z,1.83
2022-08-28T19:56:28.411Z,1.70
2022-08-28T19:58:59.225Z,1.63
2022-08-28T20:01:37.256Z,1.70
2022-08-28T20:04:07.978Z,2.17
2022-08-28T20:06:37.247Z,1.93
2022-08-28T20:09:09.427Z,2.50
2022-08-28T20:11:40.694Z,2.40
2022-08-28T20:14:08.232Z,2.10
2022-08-28T20:16:40.873Z,2.50
2022-08-28T20:19:13.153Z,2.50
2022-08-28T20:21:44.569Z,2.40
2022-08-28T20:24:17.791Z,2.33
2022-08-28T20:26:45.651Z,2.03
2022-08-28T20:29:14.531Z,2.00
2022-08-28T20:31:47.985Z,1.90
2022-08-28T20:34:18.367Z,2.17
2022-08-28T20:36:45.903Z,1.70
2022-08-28T20:39:14.920Z,1.57
2022-08-28T20:41:44.473Z,2.13
2022-08-28T20:44:15.520Z,1.60
2022-08-28T20:46:43.204Z,1.77
2022-08-28T20:49:12.606Z,2.10
2022-08-28T20:52:01.244Z,1.70
2022-08-28T20:54:37.524Z,1.90
2022-08-28T20:57:09.517Z,1.77
2022-08-28T20:59:40.632Z,1.90
2022-08-28T21:02:21.806Z,2.07
2022-08-28T21:04:49.485Z,1.60
2022-08-28T21:07:21.271Z,1.93
2022-08-28T21:10:04.311Z,2.53
2022-08-28T21:12:34.947Z,2.13
2022-08-28T21:15:02.744Z,1.53
2022-08-28T21:17:30.918Z,1.50
2022-08-28T21:20:06.776Z,1.63
2022-08-28T21:22:34.529Z,1.70
2022-08-28T21:25:05.840Z,1.80
2022-08-28T21:27:33.954Z,1.63
2022-08-28T21:30:01.936Z,2.00
2022-08-28T21:32:31.087Z,1.83
2022-08-28T21:34:58.523Z,2.53
2022-08-28T21:37:27.617Z,2.17
2022-08-28T21:39:56.326Z,2.43
2022-08-28T21:42:24.789Z,2.00
2022-08-28T21:44:52.291Z,2.17
2022-08-28T21:47:23.302Z,2.07
2022-08-28T21:49:56.627Z,2.07
2022-08-28T21:52:29.399Z,2.10
2022-08-28T21:55:03.422Z,1.97
2022-08-28T21:57:31.343Z,2.50
2022-08-28T21:59:59.388Z,2.20
2022-08-28T22:02:27.137Z,2.20
2022-08-28T22:04:54.460Z,1.73
2022-08-28T22:07:22.335Z,1.30
2022-08-28T22:09:50.916Z,1.63
2022-08-28T22:12:18.206Z,2.17
2022-08-28T22:14:46.161Z,3.03
2022-08-28T22:17:15.142Z,2.40
2022-08-28T22:19:42.722Z,2.03
2022-08-28T22:22:33.244Z,2.40
2022-08-28T22:25:00.951Z,1.73
2022-08-28T22:27:28.866Z,2.10
2022-08-28T22:29:57.525Z,2.60
2022-08-28T22:32:26.980Z,2.63
2022-08-28T22:34:55.303Z,2.60
2022-08-28T22:37:23.368Z,3.63
2022-08-28T22:39:50.635Z,2.60
2022-08-28T22:42:17.888Z,2.27
2022-08-28T22:44:46.955Z,2.87
2022-08-28T22:47:14.543Z,2.03
2022-08-28T22:49:42.788Z,2.63
2022-08-28T22:52:11.506Z,2.93
2022-08-28T22:54:39.052Z,2.33
2022-08-28T22:57:06.988Z,2.37
2022-08-28T22:59:35.240Z,2.60
2022-08-28T23:02:03.755Z,1.83
2022-08-28T23:04:31.318Z,2.13
2022-08-28T23:06:58.703Z,2.40
2022-08-28T23:09:26.422Z,2.17
2022-08-28T23:11:53.789Z,1.97
2022-08-28T23:14:21.721Z,2.37
2022-08-28T23:16:51.094Z,1.90
2022-08-28T23:19:18.889Z,1.97
2022-08-28T23:21:46.814Z,2.20
2022-08-28T23:24:16.257Z,2.53
2022-08-28T23:26:45.228Z,1.53
2022-08-28T23:29:14.066Z,2.30
2022-08-28T23:31:41.953Z,2.40
2022-08-28T23:34:09.258Z,1.83
2022-08-28T23:36:39.551Z,1.97
2022-08-28T23:39:10.585Z,1.83
2022-08-28T23:41:38.184Z,2.60
2022-08-28T23:44:08.780Z,2.43
2022-08-28T23:46:41.636Z,2.07
2022-08-28T23:49:11.109Z,2.70
2022-08-28T23:51:39.873Z,2.17
2022-08-28T23:54:09.976Z,2.37
2022-08-28T23:56:38.424Z,3.17
2022-08-28T23:59:06.771Z,4.00
